Time;durP1;ratioP1;P1;durP2;ratioP2;P2;SDS_P1;SDS_P2;PMS_P1;PMS_P2;Temp;Humidity;BMP_temperature;BMP_pressure;BME280_temperature;BME280_humidity;BME280_pressure;Samples;Min_cycle;Max_cycle;Signal;HPM_P1;HPM_P2
2021/05/24 00:01:25;;;;;;;6.55;4.20;;;;;;;20.19;62.71;100651.38;5012337;28;20026;-73
2021/05/24 00:03:50;;;;;;;7.07;3.85;;;;;;;20.05;62.97;100646.13;5011985;28;20034;-70
2021/05/24 00:06:16;;;;;;;8.63;4.25;;;;;;;19.97;63.13;100634.75;5012150;28;20133;-72
2021/05/24 00:08:41;;;;;;;5.20;4.00;;;;;;;19.92;63.55;100624.25;5055154;28;20056;-73
2021/05/24 00:11:07;;;;;;;5.50;4.05;;;;;;;20.06;63.27;100641.75;5068135;28;20122;-70
2021/05/24 00:13:33;;;;;;;4.55;3.72;;;;;;;20.09;63.49;100641.72;5069764;28;20073;-71
2021/05/24 00:15:59;;;;;;;6.03;3.83;;;;;;;20.06;63.45;100653.09;5070765;28;20104;-72
2021/05/24 00:18:25;;;;;;;8.10;4.05;;;;;;;19.94;62.25;100633.00;5071240;28;20020;-71
2021/05/24 00:20:56;;;;;;;5.65;4.07;;;;;;;19.97;62.37;100653.09;5052987;28;20040;-69
2021/05/24 00:23:22;;;;;;;9.75;4.30;;;;;;;19.71;63.34;100641.69;5069486;28;20073;-72
2021/05/24 00:25:49;;;;;;;7.22;4.38;;;;;;;19.63;63.50;100643.41;5071465;28;20025;-69
2021/05/24 00:28:15;;;;;;;5.82;4.18;;;;;;;19.47;63.55;100637.22;5069125;28;20033;-71
2021/05/24 00:30:42;;;;;;;7.63;4.80;;;;;;;19.43;64.29;100656.44;5069791;28;20025;-72
2021/05/24 00:33:08;;;;;;;8.68;5.10;;;;;;;19.45;64.27;100651.19;5068386;28;20033;-71
2021/05/24 00:35:35;;;;;;;5.57;4.50;;;;;;;19.50;64.10;100658.22;5070168;28;20436;-69
2021/05/24 00:38:02;;;;;;;7.28;4.45;;;;;;;19.24;63.80;100598.78;5070624;28;20058;-69
2021/05/24 00:40:28;;;;;;;7.38;4.90;;;;;;;19.33;64.09;100644.19;5070465;28;20020;-71
2021/05/24 00:42:55;;;;;;;10.15;4.43;;;;;;;19.21;64.51;100640.63;5071476;28;20070;-70
2021/05/24 00:45:20;;;;;;;6.50;4.45;;;;;;;19.27;64.71;100649.41;5066537;28;20368;-72
2021/05/24 00:47:46;;;;;;;7.40;4.43;;;;;;;19.29;64.58;100643.31;5040201;28;20029;-74
2021/05/24 00:50:12;;;;;;;5.80;4.32;;;;;;;19.37;64.63;100643.31;5067560;28;20055;-70
2021/05/24 00:52:37;;;;;;;5.60;4.15;;;;;;;19.37;64.39;100631.09;5070322;28;20024;-68
2021/05/24 00:55:07;;;;;;;7.47;4.63;;;;;;;19.27;63.76;100587.44;5067986;28;20106;-70
2021/05/24 00:57:33;;;;;;;;;;;;;;;19.51;64.14;100638.97;5067431;28;20020;-72
2021/05/24 00:59:59;;;;;;;7.97;4.75;;;;;;;19.42;64.54;100636.34;5070639;28;19917;-70
2021/05/24 01:02:24;;;;;;;8.50;4.82;;;;;;;19.27;64.13;100638.94;5069848;28;20031;-70
2021/05/24 01:04:50;;;;;;;6.47;4.70;;;;;;;19.04;64.65;100621.34;5068607;28;20025;-71
2021/05/24 01:07:16;;;;;;;5.93;4.60;;;;;;;18.80;64.90;100580.25;5065222;28;20048;-72
2021/05/24 01:09:41;;;;;;;6.10;4.63;;;;;;;19.15;65.15;100656.34;5068050;28;20032;-70
2021/05/24 01:12:09;;;;;;;8.63;5.25;;;;;;;19.12;65.09;100653.69;5070394;28;20067;-69
2021/05/24 01:14:34;;;;;;;5.28;4.75;;;;;;;19.05;65.35;100636.19;5065405;28;20485;-68
2021/05/24 01:17:00;;;;;;;5.75;4.95;;;;;;;18.86;65.63;100596.84;5069489;28;20037;-70
2021/05/24 01:19:26;;;;;;;8.60;5.05;;;;;;;18.91;66.62;100637.00;5066699;28;20050;-70
2021/05/24 01:21:52;;;;;;;7.15;5.30;;;;;;;18.76;67.08;100652.59;5067373;28;20550;-70
2021/05/24 01:24:22;;;;;;;7.50;5.00;;;;;;;18.76;67.08;100650.84;5070514;28;20387;-72
2021/05/24 01:26:48;;;;;;;8.95;4.72;;;;;;;18.47;66.16;100590.53;5066649;28;20075;-68
2021/05/24 01:29:20;;;;;;;7.00;4.82;;;;;;;18.61;64.62;100642.03;5068132;28;20018;-69
2021/05/24 01:31:49;;;;;;;7.43;4.70;;;;;;;18.46;64.98;100646.28;5064220;28;20105;-68
2021/05/24 01:34:15;;;;;;;9.27;5.28;;;;;;;18.23;65.37;100619.97;5066025;28;20028;-71
2021/05/24 01:36:40;;;;;;;8.07;5.45;;;;;;;18.16;66.16;100626.88;5045787;28;20098;-70
2021/05/24 01:39:07;;;;;;;7.30;4.60;;;;;;;18.10;66.53;100617.25;5064055;28;20463;-71
2021/05/24 01:41:33;;;;;;;9.68;5.35;;;;;;;17.82;66.99;100566.50;5047281;28;20040;-75
2021/05/24 01:43:59;;;;;;;8.45;5.18;;;;;;;18.12;66.84;100619.91;5044629;28;20120;-74
2021/05/24 01:46:25;;;;;;;9.63;5.70;;;;;;;18.02;66.83;100602.38;5066171;28;20103;-69
2021/05/24 01:48:50;;;;;;;7.78;4.97;;;;;;;18.38;66.59;100654.06;5043287;28;20093;-69
2021/05/24 01:51:15;;;;;;;6.72;5.00;;;;;;;18.39;66.83;100641.88;5056777;28;20024;-68
2021/05/24 01:53:41;;;;;;;6.60;4.75;;;;;;;18.46;66.74;100667.19;5062893;28;20056;-68
2021/05/24 01:56:07;;;;;;;8.30;4.78;;;;;;;18.35;67.38;100671.47;5063746;28;20081;-68
2021/05/24 01:58:32;;;;;;;6.60;4.90;;;;;;;18.48;67.24;100668.09;5065158;28;20027;-71
2021/05/24 02:01:10;;;;;;;7.72;4.80;;;;;;;18.15;67.48;100622.53;5066526;28;20410;-73
2021/05/24 02:03:36;;;;;;;5.45;4.60;;;;;;;18.22;68.04;100666.13;5066750;28;20021;-69
2021/05/24 02:06:03;;;;;;;7.88;5.00;;;;;;;17.93;69.04;100655.38;5066581;28;20486;-70
2021/05/24 02:08:29;;;;;;;6.38;4.97;;;;;;;17.89;69.55;100672.75;5052359;28;20029;-68
2021/05/24 02:10:55;;;;;;;7.53;5.10;;;;;;;17.86;69.87;100671.88;5052417;28;20170;-69
2021/05/24 02:13:21;;;;;;;8.18;5.22;;;;;;;17.98;69.34;100665.91;5070867;28;20158;-68
2021/05/24 02:15:47;;;;;;;5.25;4.47;;;;;;;17.58;69.15;100607.19;5052755;28;20036;-68
2021/05/24 02:18:12;;;;;;;6.50;4.90;;;;;;;18.03;68.50;100667.72;5069461;28;20017;-71
2021/05/24 02:20:38;;;;;;;6.75;4.60;;;;;;;18.06;67.99;100678.19;5070646;28;20051;-68
2021/05/24 02:23:05;;;;;;;6.50;4.75;;;;;;;17.66;67.66;100624.63;5069995;28;20491;-69
2021/05/24 02:25:31;;;;;;;6.18;5.18;;;;;;;17.90;68.02;100666.66;5052660;28;20029;-69
2021/05/24 02:27:58;;;;;;;5.72;4.65;;;;;;;17.92;68.26;100685.00;5070044;28;20047;-69
2021/05/24 02:30:25;;;;;;;5.03;4.45;;;;;;;17.85;68.46;100689.25;5070455;28;20031;-70
2021/05/24 02:32:51;;;;;;;8.13;4.57;;;;;;;17.83;68.14;100709.28;5066330;28;20479;-72
2021/05/24 02:35:18;;;;;;;6.97;4.32;;;;;;;17.79;68.38;100702.25;5043729;28;20021;-71
2021/05/24 02:37:45;;;;;;;6.75;4.50;;;;;;;17.84;68.28;100703.16;5060685;28;20166;-70
2021/05/24 02:40:13;;;;;;;5.45;4.80;;;;;;;17.64;68.58;100702.94;5051637;28;20430;-69
2021/05/24 02:42:40;;;;;;;8.68;4.88;;;;;;;17.27;68.95;100695.56;5051852;28;20053;-72
2021/05/24 02:45:08;;;;;;;7.00;4.72;;;;;;;16.67;69.38;100626.88;5065887;28;20490;-70
2021/05/24 02:47:33;;;;;;;8.05;5.07;;;;;;;17.01;69.11;100696.91;5072129;28;20032;-74
2021/05/24 02:49:59;;;;;;;6.30;5.38;;;;;;;16.54;70.10;100680.56;5071796;28;20024;-69
2021/05/24 02:52:25;;;;;;;5.60;5.05;;;;;;;16.23;70.74;100682.66;5070714;28;20028;-74
2021/05/24 02:54:50;;;;;;;8.55;5.28;;;;;;;16.26;70.92;100695.75;5072403;28;20044;-69
2021/05/24 02:57:16;;;;;;;6.88;5.50;;;;;;;16.06;71.79;100690.16;5070346;28;20057;-71
2021/05/24 02:59:41;;;;;;;9.40;5.95;;;;;;;16.04;72.33;100710.13;5071943;28;20028;-71
2021/05/24 03:02:11;;;;;;;8.75;5.90;;;;;;;16.27;71.83;100715.72;5069803;28;20056;-73
2021/05/24 03:04:37;;;;;;;7.57;5.57;;;;;;;16.42;71.33;100717.72;5063524;28;20025;-69
2021/05/24 03:07:04;;;;;;;8.65;5.93;;;;;;;16.39;71.70;100711.59;5070425;28;20035;-72
2021/05/24 03:09:29;;;;;;;9.02;6.38;;;;;;;16.24;72.66;100704.41;5055198;28;20398;-68
2021/05/24 03:11:55;;;;;;;9.02;6.78;;;;;;;16.16;72.79;100704.22;5074266;28;20030;-69
2021/05/24 03:14:21;;;;;;;7.95;6.47;;;;;;;15.89;72.68;100644.72;5073868;28;20025;-67
2021/05/24 03:16:46;;;;;;;8.07;7.15;;;;;;;16.38;72.31;100715.03;5074231;28;20402;-68
2021/05/24 03:19:12;;;;;;;7.78;6.80;;;;;;;15.82;73.24;100660.22;5074159;28;20052;-72
2021/05/24 03:21:37;;;;;;;7.95;7.00;;;;;;;16.29;72.73;100714.03;5073805;28;20043;-68
2021/05/24 03:24:03;;;;;;;10.30;6.50;;;;;;;16.51;72.65;100730.03;5074193;28;20024;-68
2021/05/24 03:26:29;;;;;;;8.25;6.78;;;;;;;16.32;71.94;100675.00;5038483;28;20036;-68
2021/05/24 03:28:54;;;;;;;7.18;6.30;;;;;;;16.79;71.44;100731.34;5073578;28;20025;-68
2021/05/24 03:31:20;;;;;;;6.93;6.00;;;;;;;16.82;71.11;100725.28;5073919;28;20028;-69
2021/05/24 03:33:45;;;;;;;9.07;6.72;;;;;;;16.56;70.72;100660.63;5073950;28;20020;-69
2021/05/24 03:36:11;;;;;;;7.07;6.38;;;;;;;17.12;70.78;100747.50;5074217;28;20033;-68
2021/05/24 03:38:36;;;;;;;8.23;5.75;;;;;;;17.15;69.94;100731.91;5073531;28;20016;-69
2021/05/24 03:41:04;;;;;;;6.60;5.65;;;;;;;17.31;69.60;100740.84;5073763;28;20027;-69
2021/05/24 03:43:30;;;;;;;8.07;5.82;;;;;;;17.01;69.60;100687.38;5055110;28;20025;-69
2021/05/24 03:45:56;;;;;;;7.70;6.00;;;;;;;17.45;69.24;100765.38;5073835;28;20036;-68
2021/05/24 03:48:21;;;;;;;7.78;6.00;;;;;;;17.29;69.67;100753.84;5073381;28;20517;-69
2021/05/24 03:50:46;;;;;;;8.20;5.95;;;;;;;17.07;70.33;100765.72;5073847;28;20021;-69
2021/05/24 03:53:12;;;;;;;9.13;6.82;;;;;;;16.92;71.01;100778.50;5073368;28;20044;-67
2021/05/24 03:55:38;;;;;;;6.97;5.82;;;;;;;16.57;71.51;100713.63;5073542;28;20103;-69
2021/05/24 03:58:03;;;;;;;10.57;6.15;;;;;;;17.00;71.45;100797.78;5071842;28;20024;-69
2021/05/24 04:00:29;;;;;;;9.60;6.15;;;;;;;17.08;71.19;100806.56;5070361;28;20037;-68
2021/05/24 04:02:54;;;;;;;10.45;6.60;;;;;;;17.16;70.89;100792.78;5071234;28;20032;-69
2021/05/24 04:05:24;;;;;;;7.05;5.90;;;;;;;17.13;70.96;100797.13;5073627;28;20016;-68
2021/05/24 04:07:52;;;;;;;9.57;6.70;;;;;;;17.10;71.29;100819.66;5073171;28;20027;-69
2021/05/24 04:10:19;;;;;;;7.13;6.22;;;;;;;17.07;71.79;100827.44;5072978;28;20032;-69
2021/05/24 04:12:44;;;;;;;10.20;7.13;;;;;;;16.91;72.62;100819.38;5072374;28;20021;-69
2021/05/24 04:15:11;;;;;;;9.27;6.95;;;;;;;16.92;72.81;100809.81;5073384;28;20051;-69
2021/05/24 04:17:39;;;;;;;8.40;6.45;;;;;;;16.73;73.26;100791.22;5073140;28;20029;-69
2021/05/24 04:20:07;;;;;;;9.55;6.65;;;;;;;16.61;73.92;100802.31;5073028;28;20475;-69
2021/05/24 04:22:35;;;;;;;11.13;7.03;;;;;;;16.77;74.58;100806.06;5073207;28;20028;-69
2021/05/24 04:25:00;;;;;;;12.02;7.32;;;;;;;16.64;75.58;100806.72;5054699;28;20529;-69
2021/05/24 04:27:26;;;;;;;7.90;6.85;;;;;;;16.16;76.74;100744.19;5072511;28;20032;-69
2021/05/24 04:29:52;;;;;;;11.20;7.38;;;;;;;16.24;79.39;100819.88;5072498;28;20032;-69
2021/05/24 04:32:18;;;;;;;11.43;7.78;;;;;;;16.31;80.32;100840.00;5072473;28;20557;-70
2021/05/24 04:34:43;;;;;;;10.18;7.72;;;;;;;16.57;80.01;100823.94;5072847;28;20028;-71
2021/05/24 04:37:09;;;;;;;9.98;7.35;;;;;;;16.77;79.54;100857.31;5072576;28;20164;-69
2021/05/24 04:39:34;;;;;;;7.68;6.78;;;;;;;16.96;78.46;100851.63;5050208;28;20095;-69
2021/05/24 04:42:00;;;;;;;8.43;6.55;;;;;;;16.52;78.10;100773.47;5049891;28;20029;-69
2021/05/24 04:44:26;;;;;;;8.35;7.30;;;;;;;17.04;79.02;100841.31;5050326;28;20033;-69
2021/05/24 04:46:52;;;;;;;9.10;7.85;;;;;;;17.17;78.62;100846.72;5049681;28;20486;-68
2021/05/24 04:49:17;;;;;;;9.27;8.00;;;;;;;17.04;79.97;100833.47;5050280;28;20075;-69
2021/05/24 04:51:43;;;;;;;7.72;6.93;;;;;;;17.12;79.49;100857.06;5053420;28;20039;-68
2021/05/24 04:54:09;;;;;;;8.40;6.63;;;;;;;17.30;79.31;100861.72;5049641;28;20052;-70
2021/05/24 04:56:35;;;;;;;8.00;6.47;;;;;;;17.41;78.55;100851.47;5060992;28;20115;-67
2021/05/24 04:59:01;;;;;;;7.43;6.22;;;;;;;17.32;76.28;100809.56;5050663;28;20128;-70
2021/05/24 05:01:26;;;;;;;8.50;6.60;;;;;;;17.74;75.97;100864.09;5050087;28;20025;-70
2021/05/24 05:03:52;;;;;;;7.85;7.05;;;;;;;17.89;75.92;100844.28;5053003;28;20044;-70
2021/05/24 05:06:18;;;;;;;8.93;6.97;;;;;;;18.09;75.11;100849.78;5047208;28;20036;-70
2021/05/24 05:08:43;;;;;;;7.82;6.70;;;;;;;18.29;73.95;100857.84;5049465;28;20060;-69
2021/05/24 05:11:09;;;;;;;7.80;7.00;;;;;;;17.99;74.22;100798.28;5060720;28;20029;-68
2021/05/24 05:13:34;;;;;;;10.18;7.20;;;;;;;18.04;74.38;100796.59;5069114;28;20028;-69
2021/05/24 05:18:38;;;;;;;7.38;6.15;;;;;;;18.18;73.77;100804.59;5154698;22;20085;-70
2021/05/24 05:21:04;;;;;;;8.90;6.68;;;;;;;18.65;73.46;100873.94;5015749;28;20136;-70
2021/05/24 05:23:30;;;;;;;7.90;6.05;;;;;;;18.77;72.07;100876.66;5024950;28;20029;-71
2021/05/24 05:25:55;;;;;;;8.18;6.57;;;;;;;18.56;72.46;100825.03;5030052;28;20171;-71
2021/05/24 05:28:23;;;;;;;8.75;6.30;;;;;;;18.88;72.93;100869.78;5031427;28;20365;-69
2021/05/24 05:30:52;;;;;;;6.50;5.80;;;;;;;18.92;72.35;100879.44;5030943;28;20476;-71
2021/05/24 05:33:17;;;;;;;9.50;6.78;;;;;;;18.90;72.83;100875.97;5031013;28;20022;-67
2021/05/24 05:35:53;;;;;;;7.80;6.18;;;;;;;19.03;72.40;100891.78;5031074;28;20041;-70
2021/05/24 05:38:19;;;;;;;9.27;6.93;;;;;;;19.15;72.03;100893.59;4998859;28;20041;-70
2021/05/24 05:40:48;;;;;;;10.50;6.25;;;;;;;19.19;72.36;100896.25;5032423;28;20021;-69
2021/05/24 05:43:14;;;;;;;6.82;6.13;;;;;;;19.35;72.01;100883.28;5031866;28;20468;-71
2021/05/24 05:45:39;;;;;;;9.38;6.35;;;;;;;19.28;72.11;100868.38;5030802;28;20036;-72
2021/05/24 05:48:05;;;;;;;7.65;5.88;;;;;;;19.60;71.94;100870.34;5030713;28;22324;-70
2021/05/24 05:50:31;;;;;;;7.35;6.30;;;;;;;19.56;70.73;100861.59;5029884;28;20063;-71
2021/05/24 05:52:58;;;;;;;8.38;5.72;;;;;;;19.45;71.74;100821.38;5031005;28;20118;-71
2021/05/24 05:55:23;;;;;;;7.28;5.68;;;;;;;19.87;71.31;100877.53;5031317;28;20030;-73
2021/05/24 05:57:49;;;;;;;6.32;5.15;;;;;;;19.85;70.94;100877.53;5031347;28;20036;-69
2021/05/24 06:00:15;;;;;;;7.65;5.95;;;;;;;20.07;71.41;100880.25;5013578;28;20025;-70
2021/05/24 06:02:40;;;;;;;7.78;5.90;;;;;;;20.12;71.29;100868.03;5031299;28;20100;-75
2021/05/24 06:05:06;;;;;;;6.78;5.43;;;;;;;20.28;70.93;100883.81;5031322;28;20113;-71
2021/05/24 06:07:32;;;;;;;7.40;4.90;;;;;;;20.34;70.65;100862.88;5031201;28;20422;-70
2021/05/24 06:09:57;;;;;;;5.22;4.72;;;;;;;20.50;70.31;100877.78;5013586;28;20033;-69
2021/05/24 06:12:23;;;;;;;7.07;4.28;;;;;;;19.94;69.84;100791.94;4992552;28;20049;-72
2021/05/24 06:14:48;;;;;;;8.00;4.82;;;;;;;20.55;71.25;100888.28;5008947;28;20030;-73
2021/05/24 06:17:14;;;;;;;7.30;4.47;;;;;;;20.67;70.76;100888.31;5003746;28;20054;-70
2021/05/24 06:19:39;;;;;;;6.85;4.68;;;;;;;20.77;69.66;100886.63;5006827;28;20148;-71
2021/05/24 06:22:04;;;;;;;9.18;4.60;;;;;;;20.76;69.39;100876.09;5008319;28;20045;-71
2021/05/24 06:24:30;;;;;;;4.47;3.78;;;;;;;20.90;67.27;100892.75;4992519;28;20025;-71
2021/05/24 06:26:55;;;;;;;6.55;3.80;;;;;;;21.03;67.16;100883.13;5009101;28;20045;-69
2021/05/24 06:29:22;;;;;;;5.75;3.97;;;;;;;21.13;66.19;100876.13;5009080;28;20473;-69
2021/05/24 06:31:53;;;;;;;6.22;4.22;;;;;;;21.17;66.95;100877.88;5008400;28;20419;-68
2021/05/24 06:34:18;;;;;;;10.23;4.20;;;;;;;21.26;67.46;100883.13;5008872;28;20152;-71
2021/05/24 06:36:44;;;;;;;10.57;4.10;;;;;;;21.63;65.64;100898.88;5008857;28;20065;-70
2021/05/24 06:39:10;;;;;;;7.20;3.97;;;;;;;21.47;64.16;100852.44;5008936;28;20484;-71
2021/05/24 06:41:36;;;;;;;7.55;4.00;;;;;;;21.90;63.63;100899.66;5008882;28;20128;-69
2021/05/24 06:44:01;;;;;;;4.47;3.85;;;;;;;22.00;62.82;100889.16;5025780;28;20037;-71
2021/05/24 06:46:27;;;;;;;6.82;3.45;;;;;;;22.10;61.50;100885.59;5030702;28;20056;-67
2021/05/24 06:48:52;;;;;;;5.75;4.13;;;;;;;22.25;60.53;100913.56;5030588;28;20064;-71
2021/05/24 06:51:18;;;;;;;5.88;4.25;;;;;;;22.11;64.51;100897.88;5030916;28;20037;-68
2021/05/24 06:53:44;;;;;;;6.88;4.10;;;;;;;22.38;62.31;100903.91;5030610;28;20071;-67
2021/05/24 06:56:09;;;;;;;5.60;4.35;;;;;;;22.60;63.53;100904.66;5030761;28;20042;-68
2021/05/24 06:58:35;;;;;;;5.95;4.32;;;;;;;22.56;62.06;100905.56;5030671;28;20091;-68
2021/05/24 07:01:01;;;;;;;6.10;3.90;;;;;;;22.59;60.40;100890.66;5030633;28;20033;-68
2021/05/24 07:03:26;;;;;;;6.10;3.97;;;;;;;22.32;60.37;100830.25;5030679;28;20056;-69
2021/05/24 07:05:52;;;;;;;7.93;3.85;;;;;;;22.44;61.07;100846.88;5020905;28;20136;-74
2021/05/24 07:08:17;;;;;;;5.60;3.67;;;;;;;22.75;59.17;100904.59;5021732;28;20022;-70
2021/05/24 07:10:43;;;;;;;6.13;4.03;;;;;;;22.44;59.45;100846.88;5030095;28;20563;-70
2021/05/24 07:13:08;;;;;;;6.68;4.00;;;;;;;22.80;58.98;100903.66;5030321;28;20021;-66
2021/05/24 07:15:34;;;;;;;5.38;3.47;;;;;;;22.93;57.48;100914.09;5011748;28;20049;-67
2021/05/24 07:17:59;;;;;;;5.38;3.10;;;;;;;23.09;59.56;100896.44;5030529;28;20140;-70
2021/05/24 07:20:24;;;;;;;5.30;3.47;;;;;;;23.27;52.80;100903.31;5030320;28;20029;-70
2021/05/24 07:22:50;;;;;;;5.78;2.83;;;;;;;23.38;51.20;100900.59;5030473;28;20027;-67
2021/05/24 07:25:16;;;;;;;5.97;3.30;;;;;;;23.50;52.30;100914.53;5030432;28;20022;-72
2021/05/24 07:27:43;;;;;;;6.10;2.70;;;;;;;23.65;53.15;100927.59;5030024;28;20548;-68
2021/05/24 07:30:09;;;;;;;8.50;2.97;;;;;;;23.67;52.13;100917.88;5030067;28;20046;-68
2021/05/24 07:32:35;;;;;;;5.90;3.40;;;;;;;23.05;51.60;100807.81;5031522;28;20029;-67
2021/05/24 07:35:02;;;;;;;5.25;2.60;;;;;;;23.80;50.13;100928.28;5033766;28;20041;-70
2021/05/24 07:37:27;;;;;;;7.18;2.97;;;;;;;23.94;53.12;100933.44;5033874;28;20040;-77
2021/05/24 07:39:53;;;;;;;5.82;2.95;;;;;;;24.03;51.34;100939.50;5033480;28;20029;-67
2021/05/24 07:42:18;;;;;;;6.00;2.70;;;;;;;24.10;49.34;100926.25;5015268;28;20044;-67
2021/05/24 07:44:44;;;;;;;6.65;3.08;;;;;;;24.22;50.68;100931.38;5033863;28;20034;-67
2021/05/24 07:47:10;;;;;;;5.90;2.85;;;;;;;24.39;50.33;100939.94;5033218;28;20041;-68
2021/05/24 07:49:35;;;;;;;8.57;2.83;;;;;;;24.42;50.50;100930.25;5033703;28;20025;-67
2021/05/24 07:52:01;;;;;;;6.88;2.60;;;;;;;24.50;51.06;100929.25;5031951;28;20025;-70
2021/05/24 07:54:26;;;;;;;9.57;3.38;;;;;;;24.53;48.97;100920.41;5033428;28;20025;-68
2021/05/24 07:56:53;;;;;;;8.38;2.95;;;;;;;24.68;48.23;100930.78;5033035;28;20044;-67
2021/05/24 07:59:18;;;;;;;5.10;2.70;;;;;;;24.79;48.18;100948.25;5033182;28;20566;-69
2021/05/24 08:01:44;;;;;;;4.20;2.70;;;;;;;24.86;48.84;100944.59;5033188;28;20033;-70
2021/05/24 08:04:10;;;;;;;6.57;2.92;;;;;;;24.93;49.56;100927.78;5033292;28;20033;-68
2021/05/24 08:06:36;;;;;;;5.78;3.00;;;;;;;25.10;47.88;100946.00;5033193;28;20033;-70
2021/05/24 08:09:02;;;;;;;5.28;2.63;;;;;;;25.01;47.57;100936.47;5033207;28;20065;-72
2021/05/24 08:11:28;;;;;;;5.40;2.38;;;;;;;25.24;48.45;100956.34;5033588;28;20022;-72
2021/05/24 08:13:54;;;;;;;5.15;2.65;;;;;;;25.15;46.58;100957.38;5033041;28;20028;-76
2021/05/24 08:16:21;;;;;;;5.97;2.63;;;;;;;25.22;49.29;100942.28;5033001;28;20744;-70
2021/05/24 08:18:46;;;;;;;10.95;2.85;;;;;;;25.32;48.44;100946.53;5032467;28;20050;-68
2021/05/24 08:21:12;;;;;;;5.50;2.33;;;;;;;25.43;48.77;100959.59;5032844;28;20061;-69
2021/05/24 08:23:38;;;;;;;6.25;2.58;;;;;;;25.49;47.14;100964.78;5033035;28;20029;-69
2021/05/24 08:26:04;;;;;;;5.82;2.40;;;;;;;25.58;47.65;100960.22;5014923;28;20021;-68
2021/05/24 08:28:30;;;;;;;6.57;2.30;;;;;;;25.79;48.23;100969.56;5033025;28;20109;-67
2021/05/24 08:30:56;;;;;;;5.22;2.60;;;;;;;25.88;45.37;100964.06;5032681;28;20025;-70
2021/05/24 08:33:22;;;;;;;5.03;2.47;;;;;;;26.02;45.49;100965.59;5032641;28;20040;-67
2021/05/24 08:35:49;;;;;;;5.18;2.20;;;;;;;25.91;46.66;100905.84;5032703;28;20017;-71
2021/05/24 08:38:14;;;;;;;4.75;2.40;;;;;;;26.13;44.38;100943.38;5032456;28;20064;-68
2021/05/24 08:40:42;;;;;;;5.93;2.22;;;;;;;26.41;43.34;100952.50;5032912;28;20439;-70
2021/05/24 08:43:08;;;;;;;4.75;2.10;;;;;;;26.44;43.11;100942.72;5032700;28;20026;-67
2021/05/24 08:45:38;;;;;;;9.07;2.10;;;;;;;26.66;42.84;100949.31;4995855;28;20488;-72
2021/05/24 08:48:08;;;;;;;5.53;1.88;;;;;;;26.80;41.51;100944.59;5003258;28;20057;-68
2021/05/24 08:50:33;;;;;;;8.07;2.10;;;;;;;26.79;40.00;100925.19;5004469;28;20041;-72
2021/05/24 08:52:59;;;;;;;4.40;2.10;;;;;;;26.86;40.47;100936.50;5009951;28;20105;-70
2021/05/24 08:55:25;;;;;;;6.85;2.38;;;;;;;27.02;40.99;100933.50;5010087;28;20026;-68
2021/05/24 08:57:51;;;;;;;5.35;2.05;;;;;;;27.15;39.98;100934.94;4993880;28;20466;-70
2021/05/24 09:00:20;;;;;;;5.90;2.03;;;;;;;26.60;39.27;100839.94;5009712;28;20492;-69
2021/05/24 09:02:50;;;;;;;;;;;;;;;27.11;39.41;100931.47;4994035;28;20546;-69
2021/05/24 09:05:18;;;;;;;6.32;1.85;;;;;;;27.16;40.64;100912.81;5009834;28;19956;-71
2021/05/24 09:07:50;;;;;;;5.18;2.00;;;;;;;27.28;40.75;100930.22;5010207;28;20026;-72
2021/05/24 09:10:16;;;;;;;4.35;2.17;;;;;;;27.29;40.42;100927.50;5009728;28;20041;-67
2021/05/24 09:12:41;;;;;;;5.60;1.88;;;;;;;27.40;38.37;100929.03;5009544;28;20032;-71
2021/05/24 09:15:14;;;;;;;6.00;2.10;;;;;;;27.62;40.53;100918.75;5009684;28;20034;-71
2021/05/24 09:17:53;;;;;;;4.13;1.90;;;;;;;27.59;38.57;100877.25;5009225;28;20046;-68
2021/05/24 09:20:24;;;;;;;4.40;2.00;;;;;;;28.06;40.11;100916.69;5009902;28;20053;-69
2021/05/24 09:23:17;;;;;;;10.45;2.13;;;;;;;28.14;38.60;100923.50;5019376;28;20045;-69
2021/05/24 09:25:47;;;;;;;5.93;2.00;;;;;;;28.00;38.44;100881.44;5031560;28;20029;-69
2021/05/24 09:28:35;;;;;;;4.22;2.45;;;;;;;28.28;40.42;100917.81;5011718;28;20057;-70
2021/05/24 09:31:09;;;;;;;4.50;2.03;;;;;;;28.30;37.96;100932.78;5034607;28;20127;-71
2021/05/24 09:33:37;;;;;;;10.25;2.25;;;;;;;28.02;38.89;100882.25;5033259;28;20040;-70
2021/05/24 09:36:04;;;;;;;3.85;2.03;;;;;;;28.34;36.34;100915.84;5022382;28;20415;-69
2021/05/24 09:38:35;;;;;;;4.00;2.03;;;;;;;28.56;36.31;100918.72;5031309;28;20452;-68
2021/05/24 09:41:02;;;;;;;6.80;2.13;;;;;;;28.61;38.45;100910.59;5031446;28;20492;-72
2021/05/24 09:43:32;;;;;;;3.95;1.83;;;;;;;28.69;40.71;100907.75;5031234;28;20479;-72
2021/05/24 09:46:11;;;;;;;7.18;2.13;;;;;;;28.71;36.49;100921.81;5031458;28;20036;-70
2021/05/24 09:48:38;;;;;;;2.85;1.90;;;;;;;28.74;38.57;100919.09;5031355;28;20403;-68
2021/05/24 09:51:06;;;;;;;9.80;2.33;;;;;;;28.72;38.09;100915.59;5031205;28;20419;-71
2021/05/24 09:53:31;;;;;;;6.15;2.20;;;;;;;28.66;36.12;100899.81;5031315;28;20027;-70
2021/05/24 09:56:14;;;;;;;4.25;2.08;;;;;;;28.76;36.46;100909.25;5030394;28;20037;-74
2021/05/24 09:58:39;;;;;;;5.50;2.13;;;;;;;28.85;34.97;100916.94;5010751;28;20026;-72
2021/05/24 10:01:15;;;;;;;5.57;2.13;;;;;;;29.03;35.62;100909.28;5010700;28;20049;-69
2021/05/24 10:03:42;;;;;;;8.45;2.33;;;;;;;29.27;35.43;100910.25;5018226;28;20025;-70
2021/05/24 10:06:08;;;;;;;5.93;2.15;;;;;;;29.31;36.50;100911.03;5016526;28;20396;-72
2021/05/24 10:08:33;;;;;;;4.50;2.10;;;;;;;29.35;35.39;100907.38;5015128;28;20041;-70
2021/05/24 10:11:00;;;;;;;6.82;2.08;;;;;;;29.28;35.54;100906.66;5011362;28;20508;-69
2021/05/24 10:13:28;;;;;;;4.82;1.90;;;;;;;29.41;34.05;100893.88;4992767;28;20040;-69
2021/05/24 10:15:59;;;;;;;4.50;2.20;;;;;;;29.49;35.21;100890.94;5013509;28;20408;-68
2021/05/24 10:18:25;;;;;;;3.30;1.70;;;;;;;29.44;32.53;100885.75;5026854;28;20048;-73
2021/05/24 10:20:52;;;;;;;6.60;1.90;;;;;;;29.58;32.99;100884.41;5030955;28;20109;-68
2021/05/24 10:23:20;;;;;;;4.18;2.20;;;;;;;29.86;34.85;100881.63;5030491;28;20036;-67
2021/05/24 10:25:46;;;;;;;4.88;2.08;;;;;;;30.03;34.71;100883.66;5030601;28;20029;-70
2021/05/24 10:28:12;;;;;;;3.80;1.77;;;;;;;30.24;31.65;100884.63;5029986;28;20029;-67
2021/05/24 10:30:37;;;;;;;12.20;2.20;;;;;;;30.29;33.25;100874.66;5030759;28;20477;-68
2021/05/24 10:33:07;;;;;;;10.52;2.42;;;;;;;30.26;32.85;100887.25;5029926;28;20028;-69
2021/05/24 10:35:38;;;;;;;4.07;2.00;;;;;;;30.41;33.50;100902.63;5030367;28;20091;-70
2021/05/24 10:38:22;;;;;;;4.45;2.00;;;;;;;30.24;34.10;100903.25;5030358;28;20057;-69
2021/05/24 10:40:50;;;;;;;4.43;1.95;;;;;;;30.29;31.85;100895.97;5031344;28;20467;-67
2021/05/24 10:43:17;;;;;;;8.07;2.10;;;;;;;30.55;32.42;100893.25;5030867;28;20041;-68
2021/05/24 10:45:43;;;;;;;5.65;2.15;;;;;;;30.67;34.24;100895.44;5000183;28;20479;-69
2021/05/24 10:48:09;;;;;;;5.07;1.90;;;;;;;30.72;34.37;100885.44;5030798;28;20033;-68
2021/05/24 10:50:35;;;;;;;6.32;1.90;;;;;;;31.00;32.01;100876.28;5030245;28;20056;-69
2021/05/24 10:53:04;;;;;;;3.65;1.73;;;;;;;31.21;30.46;100885.19;5030668;28;20041;-68
2021/05/24 10:55:29;;;;;;;2.60;1.90;;;;;;;31.24;32.32;100887.75;5030287;28;20013;-69
2021/05/24 10:58:03;;;;;;;4.80;2.35;;;;;;;30.92;31.88;100873.09;5031066;28;20029;-67
2021/05/24 11:00:49;;;;;;;5.00;2.08;;;;;;;30.86;30.56;100892.84;5031055;28;20462;-68
2021/05/24 11:03:14;;;;;;;4.47;2.10;;;;;;;30.25;31.74;100782.50;5016119;28;20034;-72
2021/05/24 11:05:40;;;;;;;7.38;2.25;;;;;;;30.96;29.72;100864.03;5010658;28;20442;-73
2021/05/24 11:08:09;;;;;;;3.97;1.90;;;;;;;31.25;30.86;100880.59;5012986;28;20136;-68
2021/05/24 11:10:45;;;;;;;4.20;2.00;;;;;;;31.24;32.15;100881.53;5017220;28;20080;-68
2021/05/24 11:13:11;;;;;;;5.18;1.85;;;;;;;31.60;30.79;100886.19;5015597;28;20026;-72
2021/05/24 11:15:39;;;;;;;5.53;2.13;;;;;;;31.80;31.74;100884.47;5022311;28;20037;-73
2021/05/24 11:18:04;;;;;;;5.45;2.03;;;;;;;31.85;32.37;100874.44;5028591;28;20185;-72
2021/05/24 11:21:02;;;;;;;6.20;2.17;;;;;;;31.81;32.82;100876.38;5014164;28;20466;-72
2021/05/24 11:26:27;;;;;;;5.28;1.80;;;;;;;32.09;28.96;100873.28;5017374;28;20052;-72
2021/05/24 11:28:59;;;;;;;4.72;2.00;;;;;;;31.65;29.09;100867.34;5014992;28;20033;-75